createdAt,value
2022-09-23T00:00:25.790Z,997.37
2022-09-23T00:01:25.846Z,997.35
2022-09-23T00:02:25.811Z,997.41
2022-09-23T00:03:25.747Z,997.39
2022-09-23T00:04:25.750Z,997.38
2022-09-23T00:05:25.742Z,997.43
2022-09-23T00:06:25.737Z,997.41
2022-09-23T00:07:25.739Z,997.37
2022-09-23T00:08:25.726Z,997.40
2022-09-23T00:09:25.706Z,997.37
2022-09-23T00:10:25.710Z,997.32
2022-09-23T00:11:25.699Z,997.36
2022-09-23T00:12:25.706Z,997.36
2022-09-23T00:13:25.689Z,997.38
2022-09-23T00:14:25.681Z,997.36
2022-09-23T00:15:26.669Z,997.31
2022-09-23T00:16:25.711Z,997.31
2022-09-23T00:17:25.664Z,997.28
2022-09-23T00:18:25.656Z,997.30
2022-09-23T00:19:25.654Z,997.32
2022-09-23T00:20:25.641Z,997.30
2022-09-23T00:21:25.633Z,997.30
2022-09-23T00:22:25.638Z,997.30
2022-09-23T00:23:25.629Z,997.26
2022-09-23T00:24:25.663Z,997.30
2022-09-23T00:25:25.616Z,997.24
2022-09-23T00:26:25.611Z,997.23
2022-09-23T00:27:25.594Z,997.22
2022-09-23T00:28:25.582Z,997.32
2022-09-23T00:29:25.604Z,997.27
2022-09-23T00:30:25.615Z,997.26
2022-09-23T00:31:25.575Z,997.30
2022-09-23T00:32:25.574Z,997.19
2022-09-23T00:33:25.563Z,997.28
2022-09-23T00:34:25.567Z,997.24
2022-09-23T00:35:25.554Z,997.27
2022-09-23T00:36:25.538Z,997.24
2022-09-23T00:37:25.534Z,997.26
2022-09-23T00:38:25.539Z,997.20
2022-09-23T00:39:25.567Z,997.16
2022-09-23T00:40:25.582Z,997.21
2022-09-23T00:41:25.522Z,997.11
2022-09-23T00:42:25.514Z,997.15
2022-09-23T00:43:25.503Z,997.09
2022-09-23T00:44:25.513Z,997.05
2022-09-23T00:45:25.490Z,997.01
2022-09-23T00:46:25.566Z,997.05
2022-09-23T00:47:25.471Z,997.03
2022-09-23T00:48:25.474Z,997.04
2022-09-23T00:49:25.459Z,997.07
2022-09-23T00:50:25.462Z,997.04
2022-09-23T00:51:25.483Z,997.04
2022-09-23T00:52:25.459Z,997.08
2022-09-23T00:53:25.434Z,997.10
2022-09-23T00:54:25.438Z,997.01
2022-09-23T00:55:25.440Z,997.07
2022-09-23T00:56:25.978Z,997.05
2022-09-23T00:57:25.430Z,996.99
2022-09-23T00:58:25.408Z,996.97
2022-09-23T00:59:25.398Z,996.99
2022-09-23T01:00:25.398Z,996.97
2022-09-23T01:01:25.422Z,997.00
2022-09-23T01:02:25.499Z,997.05
2022-09-23T01:03:25.381Z,997.00
2022-09-23T01:04:25.368Z,996.99
2022-09-23T01:05:25.358Z,996.96
2022-09-23T01:06:25.357Z,996.99
2022-09-23T01:07:25.360Z,996.99
2022-09-23T01:08:25.346Z,996.94
2022-09-23T01:09:25.356Z,996.95
2022-09-23T01:10:25.342Z,997.01
2022-09-23T01:11:25.324Z,997.01
2022-09-23T01:12:25.314Z,996.96
2022-09-23T01:13:25.318Z,996.95
2022-09-23T01:14:25.314Z,996.97
2022-09-23T01:15:25.308Z,996.97
2022-09-23T01:16:25.360Z,996.96
2022-09-23T01:17:25.290Z,996.97
2022-09-23T01:18:25.289Z,996.97
2022-09-23T01:19:25.302Z,996.96
2022-09-23T01:20:25.279Z,996.93
2022-09-23T01:21:25.274Z,996.89
2022-09-23T01:22:25.250Z,996.91
2022-09-23T01:23:25.246Z,996.83
2022-09-23T01:24:25.261Z,996.90
2022-09-23T01:25:25.239Z,996.92
2022-09-23T01:26:25.227Z,996.90
2022-09-23T01:27:25.233Z,996.94
2022-09-23T01:28:25.222Z,996.91
2022-09-23T01:29:25.211Z,996.84
2022-09-23T01:30:25.448Z,996.86
2022-09-23T01:31:25.205Z,996.86
2022-09-23T01:32:25.208Z,996.86
2022-09-23T01:33:25.190Z,996.85
2022-09-23T01:34:25.186Z,996.83
2022-09-23T01:35:25.185Z,996.81
2022-09-23T01:36:25.175Z,996.78
2022-09-23T01:37:25.162Z,996.84
2022-09-23T01:38:25.155Z,996.85
2022-09-23T01:39:25.145Z,996.89
2022-09-23T01:40:25.240Z,996.84
2022-09-23T01:41:25.142Z,996.86
2022-09-23T01:42:25.127Z,996.85
2022-09-23T01:43:25.115Z,996.81
2022-09-23T01:44:25.129Z,996.77
2022-09-23T01:45:25.130Z,996.84
2022-09-23T01:46:25.110Z,996.80
2022-09-23T01:47:25.098Z,996.82
2022-09-23T01:48:25.133Z,996.82
2022-09-23T01:49:25.082Z,996.78
2022-09-23T01:50:25.090Z,996.75
2022-09-23T01:51:25.086Z,996.74
2022-09-23T01:52:25.062Z,996.78
2022-09-23T01:53:25.070Z,996.78
2022-09-23T01:54:25.054Z,996.80
2022-09-23T01:55:25.070Z,996.80
2022-09-23T01:56:25.173Z,996.75
2022-09-23T01:57:25.036Z,996.78
2022-09-23T01:58:25.026Z,996.70
2022-09-23T01:59:25.026Z,996.75
2022-09-23T02:00:25.018Z,996.70
2022-09-23T02:01:25.113Z,996.68
2022-09-23T02:02:25.054Z,996.70
2022-09-23T02:03:24.999Z,996.63
2022-09-23T02:04:24.986Z,996.70
2022-09-23T02:05:24.982Z,996.64
2022-09-23T02:06:24.989Z,996.64
2022-09-23T02:07:24.974Z,996.66
2022-09-23T02:08:24.968Z,996.62
2022-09-23T02:09:24.988Z,996.65
2022-09-23T02:10:24.954Z,996.66
2022-09-23T02:11:24.991Z,996.69
2022-09-23T02:12:24.945Z,996.61
2022-09-23T02:13:24.941Z,996.67
2022-09-23T02:14:24.921Z,996.69
2022-09-23T02:15:24.924Z,996.69
2022-09-23T02:16:24.976Z,996.65
2022-09-23T02:17:24.906Z,996.61
2022-09-23T02:18:24.901Z,996.61
2022-09-23T02:19:24.898Z,996.61
2022-09-23T02:20:24.886Z,996.61
2022-09-23T02:21:24.906Z,996.62
2022-09-23T02:22:24.881Z,996.58
2022-09-23T02:23:24.872Z,996.58
2022-09-23T02:24:24.882Z,996.62
2022-09-23T02:25:24.854Z,996.59
2022-09-23T02:26:24.842Z,996.61
2022-09-23T02:27:24.854Z,996.60
2022-09-23T02:28:24.842Z,996.57
2022-09-23T02:29:24.829Z,996.61
2022-09-23T02:30:24.827Z,996.60
2022-09-23T02:31:24.869Z,996.57
2022-09-23T02:32:24.823Z,996.61
2022-09-23T02:33:24.805Z,996.59
2022-09-23T02:34:24.798Z,996.61
2022-09-23T02:35:24.793Z,996.57
2022-09-23T02:36:24.798Z,996.55
2022-09-23T02:37:24.778Z,996.49
2022-09-23T02:38:24.780Z,996.54
2022-09-23T02:39:24.769Z,996.56
2022-09-23T02:40:24.788Z,996.54
2022-09-23T02:41:24.779Z,996.54
2022-09-23T02:42:24.745Z,996.57
2022-09-23T02:43:24.741Z,996.49
2022-09-23T02:44:24.737Z,996.54
2022-09-23T02:45:24.721Z,996.53
2022-09-23T02:46:24.856Z,996.52
2022-09-23T02:47:24.726Z,996.52
2022-09-23T02:48:24.710Z,996.51
2022-09-23T02:49:24.706Z,996.53
2022-09-23T02:50:24.684Z,996.52
2022-09-23T02:51:24.702Z,996.47
2022-09-23T02:52:24.701Z,996.51
2022-09-23T02:53:24.682Z,996.49
2022-09-23T02:54:24.683Z,996.47
2022-09-23T02:55:24.673Z,996.52
2022-09-23T02:56:24.666Z,996.47
2022-09-23T02:57:24.659Z,996.50
2022-09-23T02:58:24.650Z,996.49
2022-09-23T02:59:24.637Z,996.44
2022-09-23T03:00:24.629Z,996.47
2022-09-23T03:01:24.690Z,996.41
2022-09-23T03:02:24.676Z,996.43
2022-09-23T03:03:24.642Z,996.44
2022-09-23T03:04:25.605Z,996.42
2022-09-23T03:05:24.605Z,996.44
2022-09-23T03:06:24.593Z,996.42
2022-09-23T03:07:24.599Z,996.39
2022-09-23T03:08:24.589Z,996.39
2022-09-23T03:09:24.574Z,996.33
2022-09-23T03:10:24.571Z,996.31
2022-09-23T03:11:24.567Z,996.32
2022-09-23T03:12:24.554Z,996.34
2022-09-23T03:13:28.712Z,996.32
2022-09-23T03:14:25.557Z,996.39
2022-09-23T03:15:24.522Z,996.35
2022-09-23T03:16:24.603Z,996.30
2022-09-23T03:17:24.525Z,996.25
2022-09-23T03:18:24.513Z,996.22
2022-09-23T03:19:24.525Z,996.27
2022-09-23T03:20:24.514Z,996.30
2022-09-23T03:21:24.503Z,996.30
2022-09-23T03:22:24.495Z,996.31
2022-09-23T03:23:24.487Z,996.31
2022-09-23T03:24:24.497Z,996.31
2022-09-23T03:25:24.473Z,996.27
2022-09-23T03:26:24.469Z,996.33
2022-09-23T03:27:24.457Z,996.28
2022-09-23T03:28:24.450Z,996.30
2022-09-23T03:29:24.462Z,996.24
2022-09-23T03:30:24.440Z,996.23
2022-09-23T03:31:24.441Z,996.22
2022-09-23T03:32:24.434Z,996.23
2022-09-23T03:33:28.414Z,996.22
2022-09-23T03:34:25.419Z,996.22
2022-09-23T03:35:24.422Z,996.21
2022-09-23T03:36:24.403Z,996.25
2022-09-23T03:37:24.391Z,996.19
2022-09-23T03:38:24.377Z,996.28
2022-09-23T03:39:24.382Z,996.21
2022-09-23T03:40:24.441Z,996.23
2022-09-23T03:41:24.388Z,996.21
2022-09-23T03:42:24.370Z,996.17
2022-09-23T03:43:24.340Z,996.17
2022-09-23T03:44:24.342Z,996.16
2022-09-23T03:45:24.377Z,996.23
2022-09-23T03:46:24.334Z,996.16
2022-09-23T03:47:24.322Z,996.14
2022-09-23T03:48:24.325Z,996.14
2022-09-23T03:49:24.315Z,996.14
2022-09-23T03:50:24.305Z,996.16
2022-09-23T03:51:24.302Z,996.14
2022-09-23T03:52:24.309Z,996.14
2022-09-23T03:53:24.281Z,996.07
2022-09-23T03:54:24.285Z,996.15
2022-09-23T03:55:24.273Z,996.11
2022-09-23T03:56:24.266Z,996.19
2022-09-23T03:57:24.286Z,996.16
2022-09-23T03:58:24.257Z,996.14
2022-09-23T03:59:24.245Z,996.13
2022-09-23T04:00:24.245Z,996.18
2022-09-23T04:01:24.279Z,996.13
2022-09-23T04:02:24.306Z,996.08
2022-09-23T04:03:24.229Z,996.11
2022-09-23T04:04:24.213Z,995.97
2022-09-23T04:05:24.213Z,996.09
2022-09-23T04:06:24.209Z,995.99
2022-09-23T04:07:24.198Z,996.04
2022-09-23T04:08:24.180Z,995.99
2022-09-23T04:09:24.185Z,996.02
2022-09-23T04:10:24.189Z,996.02
2022-09-23T04:11:24.169Z,995.98
2022-09-23T04:12:24.161Z,995.98
2022-09-23T04:13:24.157Z,995.99
2022-09-23T04:14:24.147Z,995.99
2022-09-23T04:15:24.153Z,996.03
2022-09-23T04:16:24.203Z,995.98
2022-09-23T04:17:24.124Z,996.00
2022-09-23T04:18:24.121Z,995.94
2022-09-23T04:19:24.117Z,995.94
2022-09-23T04:20:24.130Z,995.91
2022-09-23T04:21:24.105Z,995.91
2022-09-23T04:22:24.087Z,995.89
2022-09-23T04:23:24.089Z,995.92
2022-09-23T04:24:24.093Z,995.88
2022-09-23T04:25:24.101Z,995.89
2022-09-23T04:26:24.071Z,995.90
2022-09-23T04:27:24.077Z,995.84
2022-09-23T04:28:24.065Z,995.86
2022-09-23T04:29:24.052Z,995.85
2022-09-23T04:30:24.041Z,995.91
2022-09-23T04:31:24.164Z,995.92
2022-09-23T04:32:24.033Z,995.94
2022-09-23T04:33:24.021Z,995.89
2022-09-23T04:34:24.018Z,995.89
2022-09-23T04:35:24.017Z,995.90
2022-09-23T04:36:24.012Z,995.91
2022-09-23T04:37:24.004Z,995.93
2022-09-23T04:38:23.998Z,995.93
2022-09-23T04:39:23.988Z,995.92
2022-09-23T04:40:24.004Z,995.90
2022-09-23T04:41:23.994Z,995.88
2022-09-23T04:42:23.979Z,995.82
2022-09-23T04:43:23.968Z,995.84
2022-09-23T04:44:23.965Z,995.91
2022-09-23T04:45:23.957Z,995.91
2022-09-23T04:46:23.986Z,995.85
2022-09-23T04:47:23.941Z,995.85
2022-09-23T04:48:23.926Z,995.86
2022-09-23T04:49:23.933Z,995.84
2022-09-23T04:50:23.920Z,995.85
2022-09-23T04:51:23.921Z,995.84
2022-09-23T04:52:23.919Z,995.85
2022-09-23T04:53:23.900Z,995.76
2022-09-23T04:54:23.894Z,995.82
2022-09-23T04:55:23.877Z,995.76
2022-09-23T04:56:23.883Z,995.77
2022-09-23T04:57:23.897Z,995.80
2022-09-23T04:58:24.870Z,995.80
2022-09-23T04:59:23.860Z,995.78
2022-09-23T05:00:23.855Z,995.79
2022-09-23T05:01:23.902Z,995.80
2022-09-23T05:02:23.886Z,995.81
2022-09-23T05:03:23.836Z,995.80
2022-09-23T05:04:23.829Z,995.80
2022-09-23T05:05:23.817Z,995.84
2022-09-23T05:06:23.818Z,995.83
2022-09-23T05:07:23.825Z,995.83
2022-09-23T05:08:23.797Z,995.84
2022-09-23T05:09:23.795Z,995.91
2022-09-23T05:10:23.789Z,995.85
2022-09-23T05:11:23.784Z,995.85
2022-09-23T05:12:23.788Z,995.85
2022-09-23T05:13:23.765Z,995.86
2022-09-23T05:14:23.765Z,995.86
2022-09-23T05:15:23.757Z,995.78
2022-09-23T05:16:23.815Z,995.76
2022-09-23T05:17:23.744Z,995.74
2022-09-23T05:18:23.785Z,995.70
2022-09-23T05:19:23.728Z,995.70
2022-09-23T05:20:23.732Z,995.73
2022-09-23T05:21:23.717Z,995.72
2022-09-23T05:22:23.710Z,995.71
2022-09-23T05:23:23.720Z,995.71
2022-09-23T05:24:23.700Z,995.68
2022-09-23T05:25:23.690Z,995.71
2022-09-23T05:26:23.686Z,995.78
2022-09-23T05:27:23.676Z,995.80
2022-09-23T05:28:23.673Z,995.72
2022-09-23T05:29:23.681Z,995.79
2022-09-23T05:30:23.678Z,995.77
2022-09-23T05:31:23.703Z,995.77
2022-09-23T05:32:23.648Z,995.77
2022-09-23T05:33:23.629Z,995.81
2022-09-23T05:34:23.645Z,995.83
2022-09-23T05:35:23.619Z,995.82
2022-09-23T05:36:23.616Z,995.78
2022-09-23T05:37:23.608Z,995.77
2022-09-23T05:38:23.609Z,995.76
2022-09-23T05:39:23.603Z,995.75
2022-09-23T05:40:23.638Z,995.78
2022-09-23T05:41:23.584Z,995.82
2022-09-23T05:42:23.577Z,995.75
2022-09-23T05:43:23.570Z,995.78
2022-09-23T05:44:23.580Z,995.78
2022-09-23T05:45:24.311Z,995.82
2022-09-23T05:46:23.655Z,995.82
2022-09-23T05:47:23.549Z,995.83
2022-09-23T05:48:23.538Z,995.87
2022-09-23T05:49:37.646Z,995.86
2022-09-23T05:50:24.532Z,995.84
2022-09-23T05:51:27.517Z,995.90
2022-09-23T05:52:24.528Z,995.86
2022-09-23T05:53:23.512Z,995.83
2022-09-23T05:54:23.524Z,995.89
2022-09-23T05:55:23.501Z,995.86
2022-09-23T05:56:23.496Z,995.84
2022-09-23T05:57:23.487Z,995.86
2022-09-23T05:58:23.472Z,995.88
2022-09-23T05:59:23.484Z,995.89
2022-09-23T06:00:23.473Z,995.89
2022-09-23T06:01:23.464Z,995.83
2022-09-23T06:02:23.570Z,995.88
2022-09-23T06:03:23.513Z,995.89
2022-09-23T06:04:23.458Z,995.89
2022-09-23T06:05:23.442Z,995.91
2022-09-23T06:06:23.432Z,995.96
2022-09-23T06:07:23.460Z,995.92
2022-09-23T06:08:23.430Z,995.90
2022-09-23T06:09:23.407Z,995.92
2022-09-23T06:10:23.412Z,996.00
2022-09-23T06:11:23.406Z,995.99
2022-09-23T06:12:23.399Z,995.95
2022-09-23T06:13:23.396Z,995.94
2022-09-23T06:14:23.376Z,995.99
2022-09-23T06:15:23.391Z,995.99
2022-09-23T06:16:23.430Z,996.01
2022-09-23T06:17:23.505Z,995.91
2022-09-23T06:18:23.356Z,995.94
2022-09-23T06:19:23.348Z,995.97
2022-09-23T06:20:23.348Z,995.96
2022-09-23T06:21:23.320Z,995.98
2022-09-23T06:22:23.341Z,995.96
2022-09-23T06:23:26.569Z,995.95
2022-09-23T06:24:30.197Z,995.99
2022-09-23T06:25:24.317Z,995.93
2022-09-23T06:26:23.294Z,995.88
2022-09-23T06:27:23.289Z,995.86
2022-09-23T06:28:23.284Z,995.87
2022-09-23T06:29:23.292Z,995.82
2022-09-23T06:30:23.284Z,995.86
2022-09-23T06:31:23.312Z,995.90
2022-09-23T06:32:23.256Z,995.86
2022-09-23T06:33:34.329Z,995.88
2022-09-23T06:34:25.252Z,995.85
2022-09-23T06:35:27.474Z,995.80
2022-09-23T06:36:37.606Z,995.82
2022-09-23T06:37:25.219Z,995.78
2022-09-23T06:38:23.220Z,995.80
2022-09-23T06:39:23.209Z,995.75
2022-09-23T06:40:23.224Z,995.77
2022-09-23T06:41:23.204Z,995.78
2022-09-23T06:42:23.179Z,995.73
2022-09-23T06:43:23.176Z,995.71
2022-09-23T06:44:23.168Z,995.72
2022-09-23T06:45:23.152Z,995.71
2022-09-23T06:46:23.237Z,995.70
2022-09-23T06:47:23.158Z,995.66
2022-09-23T06:48:23.146Z,995.66
2022-09-23T06:49:23.141Z,995.64
2022-09-23T06:50:23.136Z,995.63
2022-09-23T06:51:23.121Z,995.63
2022-09-23T06:52:23.156Z,995.62
2022-09-23T06:53:23.118Z,995.60
2022-09-23T06:54:23.108Z,995.54
2022-09-23T06:55:23.100Z,995.58
2022-09-23T06:56:23.095Z,995.58
2022-09-23T06:57:23.119Z,995.59
2022-09-23T06:58:23.067Z,995.57
2022-09-23T06:59:23.062Z,995.54
2022-09-23T07:00:23.064Z,995.54
2022-09-23T07:01:23.095Z,995.55
2022-09-23T07:02:23.186Z,995.53
2022-09-23T07:03:23.048Z,995.56
2022-09-23T07:04:26.129Z,995.57
2022-09-23T07:05:24.025Z,995.55
2022-09-23T07:06:23.019Z,995.55
2022-09-23T07:07:23.004Z,995.51
2022-09-23T07:08:23.027Z,995.50
2022-09-23T07:09:23.005Z,995.53
2022-09-23T07:10:22.987Z,995.51
2022-09-23T07:11:22.980Z,995.46
2022-09-23T07:12:23.007Z,995.47
2022-09-23T07:13:22.959Z,995.43
2022-09-23T07:14:22.964Z,995.47
2022-09-23T07:15:22.960Z,995.44
2022-09-23T07:16:22.994Z,995.39
2022-09-23T07:17:22.979Z,995.46
2022-09-23T07:18:22.944Z,995.44
2022-09-23T07:19:22.917Z,995.37
2022-09-23T07:20:23.966Z,995.40
2022-09-23T07:21:22.928Z,995.40
2022-09-23T07:22:22.917Z,995.43
2022-09-23T07:23:22.916Z,995.41
2022-09-23T07:24:22.900Z,995.42
2022-09-23T07:25:22.896Z,995.35
2022-09-23T07:26:22.926Z,995.36
2022-09-23T07:27:22.884Z,995.31
2022-09-23T07:28:22.957Z,995.34
2022-09-23T07:29:22.880Z,995.37
2022-09-23T07:30:25.349Z,995.36
2022-09-23T07:31:35.999Z,995.33
2022-09-23T07:32:24.953Z,995.36
2022-09-23T07:33:31.804Z,995.32
2022-09-23T07:34:24.845Z,995.35
2022-09-23T07:35:22.833Z,995.36
2022-09-23T07:36:22.825Z,995.36
2022-09-23T07:37:22.829Z,995.29
2022-09-23T07:38:22.957Z,995.34
2022-09-23T07:39:22.800Z,995.34
2022-09-23T07:40:22.833Z,995.36
2022-09-23T07:41:22.783Z,995.38
2022-09-23T07:42:22.792Z,995.38
2022-09-23T07:43:22.795Z,995.37
2022-09-23T07:44:22.787Z,995.25
2022-09-23T07:45:22.763Z,995.25
2022-09-23T07:46:22.799Z,995.34
2022-09-23T07:47:22.748Z,995.34
2022-09-23T07:48:22.751Z,995.28
2022-09-23T07:49:22.756Z,995.32
2022-09-23T07:50:22.802Z,995.27
2022-09-23T07:51:22.730Z,995.22
2022-09-23T07:52:22.724Z,995.22
2022-09-23T07:53:22.717Z,995.18
2022-09-23T07:54:22.720Z,995.19
2022-09-23T07:55:22.705Z,995.18
2022-09-23T07:56:22.696Z,995.11
2022-09-23T07:57:22.683Z,995.09
2022-09-23T07:58:22.687Z,995.05
2022-09-23T07:59:22.680Z,995.08
2022-09-23T08:00:22.809Z,995.14
2022-09-23T08:01:22.785Z,995.06
2022-09-23T08:02:22.759Z,995.05
2022-09-23T08:03:22.664Z,995.08
2022-09-23T08:04:22.652Z,995.11
2022-09-23T08:05:22.642Z,995.08
2022-09-23T08:06:22.643Z,995.06
2022-09-23T08:07:23.628Z,995.15
2022-09-23T08:08:22.616Z,995.17
2022-09-23T08:09:22.633Z,995.12
2022-09-23T08:10:22.721Z,995.18
2022-09-23T08:11:22.599Z,995.15
2022-09-23T08:12:22.584Z,995.28
2022-09-23T08:13:22.591Z,995.19
2022-09-23T08:14:22.587Z,995.21
2022-09-23T08:15:22.579Z,995.20
2022-09-23T08:16:22.601Z,995.17
2022-09-23T08:17:22.563Z,995.23
2022-09-23T08:18:22.556Z,995.14
2022-09-23T08:19:22.559Z,995.16
2022-09-23T08:20:22.589Z,995.08
2022-09-23T08:21:22.537Z,995.11
2022-09-23T08:22:22.535Z,995.09
2022-09-23T08:23:22.526Z,995.06
2022-09-23T08:24:22.538Z,995.07
2022-09-23T08:25:22.812Z,995.06
2022-09-23T08:26:23.504Z,995.07
2022-09-23T08:27:22.508Z,995.07
2022-09-23T08:28:22.493Z,995.18
2022-09-23T08:29:22.491Z,995.09
2022-09-23T08:30:22.515Z,995.09
2022-09-23T08:31:22.542Z,995.07
2022-09-23T08:32:22.478Z,995.04
2022-09-23T08:33:23.622Z,995.07
2022-09-23T08:34:23.457Z,995.04
2022-09-23T08:35:22.456Z,995.00
2022-09-23T08:36:22.479Z,995.03
2022-09-23T08:37:22.435Z,994.96
2022-09-23T08:38:22.435Z,994.97
2022-09-23T08:39:22.427Z,994.95
2022-09-23T08:40:22.447Z,994.98
2022-09-23T08:41:22.418Z,994.97
2022-09-23T08:42:22.407Z,995.02
2022-09-23T08:43:22.411Z,994.98
2022-09-23T08:44:22.390Z,995.01
2022-09-23T08:45:22.387Z,994.88
2022-09-23T08:46:22.409Z,994.85
2022-09-23T08:47:22.374Z,994.82
2022-09-23T08:48:22.380Z,994.80
2022-09-23T08:49:22.367Z,994.74
2022-09-23T08:50:22.354Z,994.79
2022-09-23T08:51:22.348Z,994.83
2022-09-23T08:52:22.320Z,994.84
2022-09-23T08:53:22.340Z,994.85
2022-09-23T08:54:22.344Z,994.83
2022-09-23T08:55:22.324Z,994.93
2022-09-23T08:56:22.316Z,994.91
2022-09-23T08:57:22.307Z,994.86
2022-09-23T08:58:25.267Z,994.90
2022-09-23T08:59:23.308Z,994.88
2022-09-23T09:00:22.280Z,994.86
2022-09-23T09:01:22.319Z,994.79
2022-09-23T09:02:22.299Z,994.93
2022-09-23T09:03:22.284Z,994.86
2022-09-23T09:04:22.268Z,994.82
2022-09-23T09:05:22.258Z,994.81
2022-09-23T09:06:22.255Z,994.86
2022-09-23T09:07:36.189Z,994.77
2022-09-23T09:08:24.247Z,994.84
2022-09-23T09:09:22.252Z,994.80
2022-09-23T09:10:22.221Z,994.81
2022-09-23T09:11:22.224Z,994.82
2022-09-23T09:12:22.223Z,994.80
2022-09-23T09:13:22.208Z,994.85
2022-09-23T09:14:22.209Z,994.77
2022-09-23T09:15:24.625Z,994.76
2022-09-23T09:16:41.798Z,994.72
2022-09-23T09:17:24.184Z,994.74
2022-09-23T09:18:22.172Z,994.75
2022-09-23T09:19:22.179Z,994.72
2022-09-23T09:20:22.160Z,994.76
2022-09-23T09:21:22.189Z,994.75
2022-09-23T09:22:22.156Z,994.78
2022-09-23T09:23:22.144Z,994.77
2022-09-23T09:24:22.155Z,994.75
2022-09-23T09:25:22.160Z,994.79
2022-09-23T09:26:22.139Z,994.76
2022-09-23T09:27:22.124Z,994.75
2022-09-23T09:28:22.112Z,994.75
2022-09-23T09:29:35.083Z,994.71
2022-09-23T09:30:24.135Z,994.75
2022-09-23T09:31:22.905Z,994.74
2022-09-23T09:32:22.104Z,994.76
2022-09-23T09:33:22.083Z,994.71
2022-09-23T09:34:22.091Z,994.68
2022-09-23T09:35:22.079Z,994.68
2022-09-23T09:36:22.065Z,994.69
2022-09-23T09:37:22.092Z,994.71
2022-09-23T09:38:22.113Z,994.72
2022-09-23T09:39:26.067Z,994.72
2022-09-23T09:40:23.107Z,994.69
2022-09-23T09:41:22.043Z,994.77
2022-09-23T09:42:22.056Z,994.70
2022-09-23T09:43:22.044Z,994.67
2022-09-23T09:44:22.023Z,994.64
2022-09-23T09:45:22.020Z,994.64
2022-09-23T09:46:22.054Z,994.62
2022-09-23T09:47:22.012Z,994.60
2022-09-23T09:48:22.015Z,994.57
2022-09-23T09:49:22.020Z,994.65
2022-09-23T09:50:22.001Z,994.64
2022-09-23T09:51:21.992Z,994.56
2022-09-23T09:52:21.982Z,994.54
2022-09-23T09:53:21.933Z,994.57
2022-09-23T09:54:21.916Z,994.50
2022-09-23T09:55:21.926Z,994.44
2022-09-23T09:56:21.901Z,994.42
2022-09-23T09:57:21.896Z,994.44
2022-09-23T09:58:21.892Z,994.47
2022-09-23T09:59:22.686Z,994.42
2022-09-23T10:00:21.895Z,994.37
2022-09-23T10:01:21.926Z,994.41
2022-09-23T10:02:21.857Z,994.31
2022-09-23T10:03:21.858Z,994.34
2022-09-23T10:04:21.917Z,994.21
2022-09-23T10:05:21.862Z,994.26
2022-09-23T10:06:21.841Z,994.30
2022-09-23T10:07:21.841Z,994.18
2022-09-23T10:08:21.837Z,994.21
2022-09-23T10:09:21.833Z,994.24
2022-09-23T10:10:32.500Z,994.20
2022-09-23T10:11:23.823Z,994.19
2022-09-23T10:12:21.808Z,994.16
2022-09-23T10:13:21.814Z,994.20
2022-09-23T10:14:21.803Z,994.18
2022-09-23T10:15:21.791Z,994.17
2022-09-23T10:16:21.849Z,994.09
2022-09-23T10:17:21.778Z,994.12
2022-09-23T10:18:21.781Z,994.03
2022-09-23T10:19:21.782Z,994.05
2022-09-23T10:20:21.756Z,994.06
2022-09-23T10:21:26.909Z,994.01
2022-09-23T10:22:22.752Z,994.00
2022-09-23T10:23:21.767Z,993.97
2022-09-23T10:24:21.782Z,993.89
2022-09-23T10:25:21.737Z,993.87
2022-09-23T10:26:21.770Z,993.89
2022-09-23T10:27:21.728Z,993.90
2022-09-23T10:28:21.722Z,993.83
2022-09-23T10:29:21.725Z,994.06
2022-09-23T10:30:21.774Z,993.98
2022-09-23T10:31:21.776Z,994.00
2022-09-23T10:32:21.743Z,994.02
2022-09-23T10:33:21.701Z,994.12
2022-09-23T10:34:21.713Z,993.99
2022-09-23T10:35:21.696Z,994.03
2022-09-23T10:36:21.671Z,994.07
2022-09-23T10:37:21.670Z,994.10
2022-09-23T10:38:21.704Z,993.95
2022-09-23T10:39:21.673Z,993.98
2022-09-23T10:40:21.701Z,993.95
2022-09-23T10:41:21.650Z,993.94
2022-09-23T10:42:21.640Z,993.90
2022-09-23T10:43:21.666Z,994.08
2022-09-23T10:44:21.643Z,994.11
2022-09-23T10:45:21.634Z,994.00
2022-09-23T10:46:21.692Z,993.94
2022-09-23T10:47:21.636Z,994.00
2022-09-23T10:48:21.631Z,994.10
2022-09-23T10:49:21.632Z,994.12
2022-09-23T10:50:21.601Z,994.16
2022-09-23T10:51:25.505Z,994.11
2022-09-23T10:52:22.602Z,994.12
2022-09-23T10:53:21.598Z,994.04
2022-09-23T10:54:21.604Z,994.14
2022-09-23T10:55:21.592Z,994.07
2022-09-23T10:56:21.581Z,993.96
2022-09-23T10:57:21.572Z,994.08
2022-09-23T10:58:21.565Z,994.12
2022-09-23T10:59:21.582Z,994.10
2022-09-23T11:00:21.584Z,994.05
2022-09-23T11:01:21.572Z,994.08
2022-09-23T11:02:21.559Z,994.06
2022-09-23T11:03:21.550Z,994.03
2022-09-23T11:04:21.597Z,993.99
2022-09-23T11:05:21.553Z,994.00
2022-09-23T11:06:21.576Z,993.95
2022-09-23T11:07:21.532Z,993.99
2022-09-23T11:08:21.553Z,994.02
2022-09-23T11:09:21.517Z,993.96
2022-09-23T11:10:35.322Z,993.98
2022-09-23T11:11:23.502Z,993.91
2022-09-23T11:12:21.509Z,993.96
2022-09-23T11:13:21.491Z,993.84
2022-09-23T11:14:21.484Z,993.87
2022-09-23T11:15:21.483Z,993.95
2022-09-23T11:16:21.513Z,993.89
2022-09-23T11:17:22.464Z,993.89
2022-09-23T11:18:21.456Z,993.85
2022-09-23T11:19:21.458Z,993.82
2022-09-23T11:20:21.457Z,993.75
2022-09-23T11:21:21.477Z,993.75
2022-09-23T11:22:21.435Z,993.74
2022-09-23T11:23:21.447Z,993.63
2022-09-23T11:24:21.452Z,993.71
2022-09-23T11:25:21.435Z,993.69
2022-09-23T11:26:21.443Z,993.70
2022-09-23T11:27:21.415Z,993.72
2022-09-23T11:28:21.407Z,993.64
2022-09-23T11:29:21.409Z,993.70
2022-09-23T11:30:21.418Z,993.74
2022-09-23T11:31:21.475Z,993.73
2022-09-23T11:32:21.385Z,993.62
2022-09-23T11:33:21.390Z,993.63
2022-09-23T11:34:21.661Z,993.64
2022-09-23T11:35:21.366Z,993.69
2022-09-23T11:36:21.371Z,993.60
2022-09-23T11:37:21.373Z,993.60
2022-09-23T11:38:21.351Z,993.62
2022-09-23T11:39:21.358Z,993.50
2022-09-23T11:40:21.398Z,993.60
2022-09-23T11:41:21.335Z,993.57
2022-09-23T11:42:21.890Z,993.60
2022-09-23T11:43:21.340Z,993.61
2022-09-23T11:44:21.314Z,993.61
2022-09-23T11:45:21.312Z,993.53
2022-09-23T11:46:21.342Z,993.57
2022-09-23T11:47:21.300Z,993.50
2022-09-23T11:48:21.292Z,993.47
2022-09-23T11:49:21.280Z,993.46
2022-09-23T11:50:21.279Z,993.53
2022-09-23T11:51:21.273Z,993.47
2022-09-23T11:52:21.276Z,993.44
2022-09-23T11:53:21.260Z,993.53
2022-09-23T11:54:21.347Z,993.46
2022-09-23T11:55:23.176Z,993.53
2022-09-23T11:56:31.604Z,993.51
2022-09-23T11:57:23.260Z,993.35
2022-09-23T11:58:25.542Z,993.24
2022-09-23T11:59:33.894Z,993.26
2022-09-23T12:00:23.219Z,993.28
2022-09-23T12:01:32.129Z,993.31
2022-09-23T12:02:28.193Z,993.33
2022-09-23T12:03:25.348Z,993.10
2022-09-23T12:04:22.721Z,993.11
2022-09-23T12:05:21.350Z,993.09
2022-09-23T12:06:21.172Z,993.07
2022-09-23T12:07:21.179Z,993.00
2022-09-23T12:08:21.165Z,993.06
2022-09-23T12:09:35.795Z,993.08
2022-09-23T12:10:23.152Z,993.03
2022-09-23T12:11:21.149Z,992.99
2022-09-23T12:12:26.349Z,993.02
2022-09-23T12:13:23.130Z,992.99
2022-09-23T12:14:21.278Z,992.94
2022-09-23T12:15:21.127Z,993.00
2022-09-23T12:16:21.181Z,993.01
2022-09-23T12:17:21.109Z,992.91
2022-09-23T12:18:23.330Z,992.82
2022-09-23T12:19:22.114Z,992.86
2022-09-23T12:20:21.124Z,992.80
2022-09-23T12:21:45.858Z,992.80
2022-09-23T12:22:23.088Z,992.76
2022-09-23T12:23:21.077Z,992.75
2022-09-23T12:24:21.072Z,992.69
2022-09-23T12:25:21.079Z,992.73
2022-09-23T12:26:21.099Z,992.76
2022-09-23T12:27:21.058Z,992.69
2022-09-23T12:28:21.046Z,992.68